Time;durP1;ratioP1;P1;durP2;ratioP2;P2;SDS_P1;SDS_P2;PMS_P1;PMS_P2;Temp;Humidity;BMP_temperature;BMP_pressure;BME280_temperature;BME280_humidity;BME280_pressure;Samples;Min_cycle;Max_cycle;Signal;HPM_P1;HPM_P2
2022/05/14 00:01:27;;;;;;;4.30;2.00;;;;;;;;;;4966727;28;20629;-75
2022/05/14 00:03:53;;;;;;;5.97;1.95;;;;;;;;;;4964243;28;20034;-76
2022/05/14 00:06:21;;;;;;;6.60;2.53;;;;;;;;;;4964840;28;20039;-75
2022/05/14 00:08:47;;;;;;;3.95;2.33;;;;;;;;;;4964319;28;20069;-75
2022/05/14 00:13:58;;;;;;;5.90;2.70;;;;;;;;;;4963278;28;20512;-75
2022/05/14 00:16:25;;;;;;;4.20;2.50;;;;;;;;;;4966530;28;20495;-75
2022/05/14 00:18:52;;;;;;;7.60;2.80;;;;;;;;;;4998623;28;20065;-77
2022/05/14 00:21:18;;;;;;;5.60;2.70;;;;;;;;;;4985197;28;20667;-74
2022/05/14 00:23:45;;;;;;;3.83;2.65;;;;;;;;;;4983455;28;20030;-75
2022/05/14 00:26:11;;;;;;;6.47;2.92;;;;;;;;;;4982974;28;20027;-76
2022/05/14 00:28:37;;;;;;;6.00;2.50;;;;;;;;;;4986398;28;20031;-76
2022/05/14 00:31:03;;;;;;;4.68;2.42;;;;;;;;;;4985429;28;20092;-75
2022/05/14 00:33:28;;;;;;;6.22;2.55;;;;;;;;;;4987101;28;20057;-76
2022/05/14 00:35:53;;;;;;;5.60;2.30;;;;;;;;;;4985126;28;20049;-76
2022/05/14 00:38:20;;;;;;;5.93;2.17;;;;;;;;;;4987203;28;20054;-76
2022/05/14 00:40:54;;;;;;;5.15;2.20;;;;;;;;;;4985188;28;20105;-76
2022/05/14 00:43:19;;;;;;;4.55;2.22;;;;;;;;;;4983544;28;20046;-76
2022/05/14 00:45:52;;;;;;;3.50;1.92;;;;;;;;;;4985849;28;20048;-75
2022/05/14 00:48:17;;;;;;;6.38;2.28;;;;;;;;;;4986517;28;20443;-75
2022/05/14 00:50:47;;;;;;;6.32;2.10;;;;;;;;;;4988942;28;20054;-74
2022/05/14 00:53:19;;;;;;;4.15;1.83;;;;;;;;;;4983546;28;20038;-75
2022/05/14 00:55:47;;;;;;;6.15;2.10;;;;;;;;;;4986597;28;20469;-75
2022/05/14 00:58:29;;;;;;;3.25;1.85;;;;;;;;;;4982402;28;20115;-76
2022/05/14 01:00:54;;;;;;;4.63;2.10;;;;;;;;;;4986711;28;20037;-74
2022/05/14 01:03:21;;;;;;;5.75;2.15;;;;;;;;;;4984138;28;20051;-75
2022/05/14 01:05:46;;;;;;;6.68;2.17;;;;;;;;;;4985425;28;20426;-75
2022/05/14 01:08:12;;;;;;;6.13;1.88;;;;;;;;;;4988459;28;20033;-76
2022/05/14 01:10:42;;;;;;;4.45;1.90;;;;;;;;;;4990441;28;20061;-76
2022/05/14 01:13:08;;;;;;;5.25;1.85;;;;;;;;;;4990435;28;20046;-74
2022/05/14 01:16:01;;;;;;;5.57;1.80;;;;;;;;;;4993027;28;20574;-76
2022/05/14 01:18:29;;;;;;;6.30;2.30;;;;;;;;;;4988213;28;20138;-77
2022/05/14 01:21:04;;;;;;;5.78;2.28;;;;;;;;;;4989890;28;20034;-76
2022/05/14 01:26:29;;;;;;;5.93;2.15;;;;;;;;;;4988135;28;20050;-75
2022/05/14 01:29:01;;;;;;;4.93;2.00;;;;;;;;;;4990255;28;20598;-75
2022/05/14 01:31:28;;;;;;;4.00;1.75;;;;;;;;;;4990186;28;20030;-77
2022/05/14 01:33:55;;;;;;;5.97;1.70;;;;;;;;;;4990493;28;20029;-76
2022/05/14 01:36:21;;;;;;;3.45;1.77;;;;;;;;;;4988971;28;20118;-75
2022/05/14 01:38:46;;;;;;;5.72;1.80;;;;;;;;;;4988066;28;20161;-76
2022/05/14 01:41:12;;;;;;;4.38;1.50;;;;;;;;;;5005303;28;20050;-76
2022/05/14 01:43:38;;;;;;;4.05;1.73;;;;;;;;;;4989422;28;20060;-76
2022/05/14 01:46:04;;;;;;;5.35;1.90;;;;;;;;;;4989792;28;20070;-75
2022/05/14 01:48:30;;;;;;;6.47;1.90;;;;;;;;;;4985347;28;20091;-75
2022/05/14 01:50:55;;;;;;;3.42;1.95;;;;;;;;;;4989539;28;20090;-76
2022/05/14 01:53:21;;;;;;;4.65;1.80;;;;;;;;;;4987734;28;21679;-76
2022/05/14 01:55:46;;;;;;;4.57;2.10;;;;;;;;;;4989757;28;20039;-76
2022/05/14 02:00:56;;;;;;;4.65;2.35;;;;;;;;;;4983607;28;20042;-75
2022/05/14 02:03:21;;;;;;;5.00;2.10;;;;;;;;;;4989266;28;20042;-76
2022/05/14 02:05:47;;;;;;;7.53;2.33;;;;;;;;;;4986737;28;20030;-76
2022/05/14 02:08:12;;;;;;;6.47;2.20;;;;;;;;;;4988302;28;20109;-74
2022/05/14 02:10:38;;;;;;;5.40;2.08;;;;;;;;;;4987111;28;20076;-76
2022/05/14 02:13:03;;;;;;;5.22;2.30;;;;;;;;;;4987103;28;20042;-76
2022/05/14 02:15:29;;;;;;;7.18;2.20;;;;;;;;;;4987793;28;20506;-75
2022/05/14 02:17:57;;;;;;;4.47;2.08;;;;;;;;;;4986675;28;20149;-75
2022/05/14 02:20:23;;;;;;;8.27;1.90;;;;;;;;;;4985079;28;20487;-77
2022/05/14 02:22:48;;;;;;;3.90;1.85;;;;;;;;;;4985947;28;20034;-75
2022/05/14 02:25:13;;;;;;;7.05;2.55;;;;;;;;;;4984649;28;20042;-76
2022/05/14 02:27:39;;;;;;;5.82;2.20;;;;;;;;;;4987971;28;20085;-74
2022/05/14 02:30:05;;;;;;;11.85;2.15;;;;;;;;;;4988856;28;20514;-76
2022/05/14 02:32:30;;;;;;;5.03;2.00;;;;;;;;;;4989565;28;20031;-76
2022/05/14 02:34:57;;;;;;;7.75;2.40;;;;;;;;;;4989930;28;20034;-76
2022/05/14 02:37:26;;;;;;;6.22;2.40;;;;;;;;;;4989582;28;20073;-77
2022/05/14 02:39:52;;;;;;;3.65;2.05;;;;;;;;;;4989781;28;20034;-76
2022/05/14 02:42:18;;;;;;;5.18;2.22;;;;;;;;;;4986654;28;20562;-75
2022/05/14 02:44:44;;;;;;;5.32;2.33;;;;;;;;;;4990561;28;20030;-75
2022/05/14 02:47:10;;;;;;;4.40;2.30;;;;;;;;;;4985156;28;20053;-74
2022/05/14 02:49:35;;;;;;;4.18;1.95;;;;;;;;;;4988409;28;20050;-75
2022/05/14 02:52:02;;;;;;;4.88;2.10;;;;;;;;;;4989429;28;20505;-76
2022/05/14 02:54:27;;;;;;;6.05;2.50;;;;;;;;;;4989006;28;20046;-76
2022/05/14 02:56:53;;;;;;;4.88;2.30;;;;;;;;;;4987880;28;20053;-76
2022/05/14 02:59:18;;;;;;;6.63;2.40;;;;;;;;;;4987114;28;20034;-76
2022/05/14 03:01:50;;;;;;;6.22;2.42;;;;;;;;;;4987920;28;20037;-75
2022/05/14 03:04:22;;;;;;;4.75;2.15;;;;;;;;;;4999283;28;20042;-75
2022/05/14 03:06:52;;;;;;;10.05;2.30;;;;;;;;;;4988505;28;20042;-75
2022/05/14 03:09:18;;;;;;;4.13;2.30;;;;;;;;;;4987590;28;20662;-75
2022/05/14 03:11:43;;;;;;;8.90;2.17;;;;;;;;;;4987746;28;20105;-75
2022/05/14 03:14:09;;;;;;;13.45;2.40;;;;;;;;;;4986061;28;20446;-75
2022/05/14 03:16:35;;;;;;;6.28;1.95;;;;;;;;;;4987968;28;20153;-76
2022/05/14 03:19:01;;;;;;;4.45;1.90;;;;;;;;;;4986176;28;20048;-76
2022/05/14 03:21:26;;;;;;;8.20;1.70;;;;;;;;;;4987823;28;20481;-76
2022/05/14 03:23:52;;;;;;;3.67;1.73;;;;;;;;;;4984030;28;20057;-75
2022/05/14 03:26:17;;;;;;;6.68;2.35;;;;;;;;;;4987744;28;20117;-75
2022/05/14 03:28:42;;;;;;;6.25;1.90;;;;;;;;;;4989125;28;20026;-76
2022/05/14 03:31:08;;;;;;;3.88;1.83;;;;;;;;;;4988998;28;20561;-75
2022/05/14 03:33:33;;;;;;;2.75;1.80;;;;;;;;;;4985410;28;20045;-75
2022/05/14 03:35:59;;;;;;;3.88;2.00;;;;;;;;;;4987292;28;20077;-75
2022/05/14 03:38:24;;;;;;;5.03;1.60;;;;;;;;;;4983691;28;20109;-78
2022/05/14 03:40:50;;;;;;;5.78;1.60;;;;;;;;;;4986499;28;20034;-75
2022/05/14 03:43:16;;;;;;;5.75;1.90;;;;;;;;;;4985227;28;20088;-76
2022/05/14 03:45:41;;;;;;;3.40;1.90;;;;;;;;;;4986633;28;20093;-75
2022/05/14 03:48:07;;;;;;;3.15;1.52;;;;;;;;;;4984368;28;20054;-75
2022/05/14 03:50:32;;;;;;;5.00;1.70;;;;;;;;;;4985019;28;20109;-76
2022/05/14 03:52:58;;;;;;;10.48;1.50;;;;;;;;;;4989156;28;20030;-76
2022/05/14 03:55:24;;;;;;;4.10;1.67;;;;;;;;;;4983612;28;20093;-74
2022/05/14 03:57:49;;;;;;;8.93;2.00;;;;;;;;;;4986305;28;20089;-77
2022/05/14 04:00:16;;;;;;;4.30;1.73;;;;;;;;;;4985300;28;20130;-76
2022/05/14 04:02:41;;;;;;;4.93;1.70;;;;;;;;;;4983103;28;20033;-75
2022/05/14 04:05:07;;;;;;;5.20;1.77;;;;;;;;;;4984722;28;20038;-76
2022/05/14 04:07:33;;;;;;;3.92;1.80;;;;;;;;;;4986712;28;20367;-75
2022/05/14 04:09:58;;;;;;;3.85;1.65;;;;;;;;;;4990865;28;20038;-75
2022/05/14 04:12:23;;;;;;;3.55;1.75;;;;;;;;;;4988571;28;20034;-75
2022/05/14 04:14:49;;;;;;;6.18;1.80;;;;;;;;;;4986383;28;20030;-75
2022/05/14 04:17:14;;;;;;;3.95;1.95;;;;;;;;;;4984368;28;20117;-74
2022/05/14 04:19:40;;;;;;;7.78;1.80;;;;;;;;;;4986981;28;20045;-75
2022/05/14 04:22:05;;;;;;;3.60;1.80;;;;;;;;;;4986828;28;20212;-76
2022/05/14 04:24:32;;;;;;;4.18;1.90;;;;;;;;;;4985924;28;20116;-77
2022/05/14 04:26:58;;;;;;;4.65;1.55;;;;;;;;;;4983629;28;20046;-75
2022/05/14 04:29:24;;;;;;;4.25;1.80;;;;;;;;;;4986532;28;20358;-75
2022/05/14 04:31:49;;;;;;;4.95;2.00;;;;;;;;;;4983901;28;20103;-75
2022/05/14 04:34:14;;;;;;;2.53;1.75;;;;;;;;;;4985647;28;20038;-75
2022/05/14 04:36:40;;;;;;;2.80;1.75;;;;;;;;;;4989005;28;20509;-75
2022/05/14 04:39:05;;;;;;;5.10;1.83;;;;;;;;;;4985148;28;20069;-75
2022/05/14 04:41:31;;;;;;;3.50;1.90;;;;;;;;;;4987611;28;20022;-76
2022/05/14 04:43:58;;;;;;;5.10;1.77;;;;;;;;;;4990319;28;20096;-73
2022/05/14 04:46:23;;;;;;;3.33;1.75;;;;;;;;;;4989385;28;20037;-76
2022/05/14 04:48:49;;;;;;;5.25;1.83;;;;;;;;;;4986061;28;20038;-76
2022/05/14 04:51:14;;;;;;;2.80;1.35;;;;;;;;;;4989926;28;20053;-74
2022/05/14 04:53:40;;;;;;;7.60;1.85;;;;;;;;;;4990398;28;20486;-75
2022/05/14 04:56:05;;;;;;;4.47;2.30;;;;;;;;;;4981842;28;20030;-76
2022/05/14 04:58:30;;;;;;;4.20;1.80;;;;;;;;;;4989080;28;20049;-76
2022/05/14 05:00:56;;;;;;;3.13;1.70;;;;;;;;;;4991150;28;20038;-75
2022/05/14 05:03:22;;;;;;;3.53;1.60;;;;;;;;;;4987950;28;20518;-76
2022/05/14 05:05:50;;;;;;;4.18;2.05;;;;;;;;;;4986913;28;20030;-76
2022/05/14 05:08:16;;;;;;;3.70;1.67;;;;;;;;;;4990119;28;20030;-75
2022/05/14 05:10:45;;;;;;;6.13;2.10;;;;;;;;;;4986956;28;20035;-76
2022/05/14 05:13:30;;;;;;;4.68;1.65;;;;;;;;;;4988495;28;20035;-74
2022/05/14 05:15:55;;;;;;;5.55;1.90;;;;;;;;;;4989233;28;20041;-76
2022/05/14 05:18:21;;;;;;;4.18;1.65;;;;;;;;;;4989119;28;20490;-75
2022/05/14 05:20:52;;;;;;;10.40;2.25;;;;;;;;;;4990737;28;20378;-75
2022/05/14 05:23:20;;;;;;;6.28;2.22;;;;;;;;;;4986648;28;20030;-75
2022/05/14 05:25:46;;;;;;;6.22;1.65;;;;;;;;;;4989301;28;20494;-76
2022/05/14 05:28:12;;;;;;;5.65;1.70;;;;;;;;;;4991051;28;20431;-76
2022/05/14 05:30:37;;;;;;;7.57;1.65;;;;;;;;;;4985502;28;20077;-75
2022/05/14 05:33:03;;;;;;;4.00;1.60;;;;;;;;;;4990466;28;20127;-76
2022/05/14 05:35:28;;;;;;;4.57;1.60;;;;;;;;;;4993752;28;20118;-76
2022/05/14 05:37:54;;;;;;;3.78;1.80;;;;;;;;;;4991175;28;20045;-76
2022/05/14 05:40:19;;;;;;;7.28;2.00;;;;;;;;;;4990410;28;20467;-76
2022/05/14 05:42:45;;;;;;;4.43;1.88;;;;;;;;;;4989093;28;20042;-76
2022/05/14 05:45:14;;;;;;;5.15;1.80;;;;;;;;;;4991389;28;20525;-75
2022/05/14 05:47:39;;;;;;;3.28;1.70;;;;;;;;;;4990388;28;20492;-75
2022/05/14 05:50:05;;;;;;;3.80;1.63;;;;;;;;;;4987512;28;20046;-76
2022/05/14 05:52:32;;;;;;;3.88;1.65;;;;;;;;;;4987566;28;20129;-76
2022/05/14 05:57:43;;;;;;;5.72;1.95;;;;;;;;;;4989651;28;20142;-76
2022/05/14 06:00:15;;;;;;;5.22;1.88;;;;;;;;;;4988916;28;20129;-76
2022/05/14 06:02:41;;;;;;;4.00;2.10;;;;;;;;;;4990022;28;20038;-76
2022/05/14 06:05:07;;;;;;;7.65;2.50;;;;;;;;;;4988107;28;20400;-76
2022/05/14 06:07:34;;;;;;;5.72;2.08;;;;;;;;;;4990438;28;20486;-75
2022/05/14 06:10:00;;;;;;;6.00;2.50;;;;;;;;;;4988892;28;20100;-74
2022/05/14 06:12:25;;;;;;;8.30;3.00;;;;;;;;;;4989840;28;20113;-75
2022/05/14 06:14:51;;;;;;;7.90;2.75;;;;;;;;;;4987977;28;20125;-76
2022/05/14 06:17:16;;;;;;;7.43;2.50;;;;;;;;;;4985519;28;20068;-74
2022/05/14 06:19:42;;;;;;;6.38;2.10;;;;;;;;;;4989072;28;20048;-77
2022/05/14 06:22:08;;;;;;;9.48;2.10;;;;;;;;;;4987900;28;20042;-75
2022/05/14 06:24:36;;;;;;;5.40;1.73;;;;;;;;;;4987079;28;20177;-76
2022/05/14 06:27:01;;;;;;;8.38;2.30;;;;;;;;;;4988702;28;20030;-75
2022/05/14 06:29:26;;;;;;;3.50;1.90;;;;;;;;;;4985079;28;20414;-76
2022/05/14 06:31:52;;;;;;;4.45;1.95;;;;;;;;;;4988577;28;20034;-76
2022/05/14 06:34:17;;;;;;;7.53;2.00;;;;;;;;;;4988787;28;20398;-75
2022/05/14 06:36:43;;;;;;;7.10;2.08;;;;;;;;;;4990143;28;20125;-75
2022/05/14 06:39:08;;;;;;;5.90;2.20;;;;;;;;;;4988219;28;20038;-76
2022/05/14 06:41:34;;;;;;;8.10;2.22;;;;;;;;;;4988582;28;20023;-75
2022/05/14 06:43:59;;;;;;;3.65;1.85;;;;;;;;;;4989401;28;20133;-76
2022/05/14 06:46:24;;;;;;;8.50;2.30;;;;;;;;;;4987953;28;20038;-75
2022/05/14 06:48:50;;;;;;;5.85;2.00;;;;;;;;;;4988197;28;20528;-75
2022/05/14 06:51:22;;;;;;;4.78;1.90;;;;;;;;;;4987483;28;20168;-74
2022/05/14 06:53:50;;;;;;;8.20;2.10;;;;;;;;;;4988358;28;20136;-75
2022/05/14 06:56:17;;;;;;;4.97;1.73;;;;;;;;;;4987078;28;20030;-75
2022/05/14 06:58:48;;;;;;;7.20;1.92;;;;;;;;;;4987620;28;20039;-74
2022/05/14 07:01:16;;;;;;;5.70;1.55;;;;;;;;;;4987888;28;20105;-75
2022/05/14 07:06:38;;;;;;;3.60;2.10;;;;;;;;;;4987799;28;20406;-75
2022/05/14 07:09:06;;;;;;;4.78;1.75;;;;;;;;;;4986448;28;20073;-75
2022/05/14 07:11:34;;;;;;;5.95;2.15;;;;;;;;;;5002084;28;20544;-76
2022/05/14 07:14:00;;;;;;;5.65;1.70;;;;;;;;;;5002594;28;20482;-75
2022/05/14 07:16:26;;;;;;;6.90;2.08;;;;;;;;;;4986456;28;20045;-75
2022/05/14 07:18:51;;;;;;;4.82;2.00;;;;;;;;;;4986477;28;20491;-76
2022/05/14 07:21:16;;;;;;;6.20;2.15;;;;;;;;;;4989141;28;20141;-74
2022/05/14 07:23:42;;;;;;;6.78;2.65;;;;;;;;;;4987541;28;20037;-75
2022/05/14 07:26:08;;;;;;;7.80;2.03;;;;;;;;;;4988332;28;20035;-74
2022/05/14 07:28:34;;;;;;;5.72;1.95;;;;;;;;;;4987223;28;20031;-74
2022/05/14 07:31:03;;;;;;;5.15;2.00;;;;;;;;;;4984571;28;20554;-74
2022/05/14 07:33:31;;;;;;;6.20;1.83;;;;;;;;;;4984553;28;20533;-75
2022/05/14 07:36:00;;;;;;;3.85;1.60;;;;;;;;;;4989181;28;20030;-75
2022/05/14 07:38:26;;;;;;;5.57;1.70;;;;;;;;;;4989109;28;20038;-74
2022/05/14 07:40:52;;;;;;;3.13;1.63;;;;;;;;;;4989294;28;20557;-76
2022/05/14 07:43:22;;;;;;;5.75;1.77;;;;;;;;;;4987471;28;20046;-75
2022/05/14 07:45:53;;;;;;;7.18;1.85;;;;;;;;;;4987591;28;20093;-75
2022/05/14 07:48:29;;;;;;;6.25;2.40;;;;;;;;;;4987751;28;20038;-75
2022/05/14 07:50:54;;;;;;;9.65;2.08;;;;;;;;;;4988699;28;20427;-75
2022/05/14 07:53:20;;;;;;;8.13;2.65;;;;;;;;;;4986393;28;20105;-75
2022/05/14 07:55:47;;;;;;;10.50;1.80;;;;;;;;;;4988360;28;20074;-74
2022/05/14 07:58:13;;;;;;;4.70;1.75;;;;;;;;;;4987915;28;20050;-75
2022/05/14 08:00:39;;;;;;;4.40;1.48;;;;;;;;;;4986932;28;20045;-75
2022/05/14 08:03:05;;;;;;;5.68;1.80;;;;;;;;;;4986636;28;20777;-75
2022/05/14 08:05:31;;;;;;;4.80;1.50;;;;;;;;;;4986497;28;20035;-74
2022/05/14 08:07:57;;;;;;;5.60;2.10;;;;;;;;;;4987171;28;20121;-75
2022/05/14 08:10:22;;;;;;;9.85;2.08;;;;;;;;;;4988861;28;20093;-75
2022/05/14 08:12:51;;;;;;;2.85;1.50;;;;;;;;;;4982476;28;20046;-74
2022/05/14 08:15:18;;;;;;;6.05;1.50;;;;;;;;;;4985112;28;20064;-75
2022/05/14 08:17:44;;;;;;;4.13;1.52;;;;;;;;;;4990229;28;20030;-74
2022/05/14 08:20:12;;;;;;;5.32;2.00;;;;;;;;;;4991098;28;20541;-75
2022/05/14 08:25:21;;;;;;;7.95;1.60;;;;;;;;;;4992790;28;20096;-75
2022/05/14 08:27:47;;;;;;;4.18;1.33;;;;;;;;;;4992743;28;20050;-75
2022/05/14 08:30:17;;;;;;;4.13;1.33;;;;;;;;;;4989761;28;20133;-75
2022/05/14 08:32:43;;;;;;;4.47;0.98;;;;;;;;;;4994832;28;20081;-75
2022/05/14 08:35:10;;;;;;;2.92;1.30;;;;;;;;;;4993798;28;20042;-73
2022/05/14 08:37:36;;;;;;;4.32;1.33;;;;;;;;;;4990373;28;20085;-74
2022/05/14 08:40:37;;;;;;;4.63;1.52;;;;;;;;;;4992009;28;20072;-75
2022/05/14 08:43:08;;;;;;;6.63;1.45;;;;;;;;;;4979735;28;20517;-75
2022/05/14 08:45:38;;;;;;;3.72;1.10;;;;;;;;;;4993253;28;20034;-75
2022/05/14 08:48:24;;;;;;;5.65;1.20;;;;;;;;;;4992259;28;20054;-75
2022/05/14 08:50:56;;;;;;;4.63;1.30;;;;;;;;;;4984229;28;20038;-74
2022/05/14 08:53:25;;;;;;;8.23;1.47;;;;;;;;;;4985768;28;20124;-75
2022/05/14 08:56:11;;;;;;;7.20;1.30;;;;;;;;;;4984770;28;20034;-74
2022/05/14 08:59:10;;;;;;;4.68;1.23;;;;;;;;;;4991451;28;20038;-74
2022/05/14 09:01:38;;;;;;;7.13;1.95;;;;;;;;;;4992343;28;20037;-75
2022/05/14 09:04:07;;;;;;;3.75;1.30;;;;;;;;;;4986452;28;20157;-74
2022/05/14 09:06:32;;;;;;;3.92;1.20;;;;;;;;;;4986238;28;20038;-76
2022/05/14 09:08:57;;;;;;;4.10;1.33;;;;;;;;;;4987437;28;20027;-73
2022/05/14 09:11:52;;;;;;;8.60;1.10;;;;;;;;;;4989826;28;20023;-75
2022/05/14 09:14:31;;;;;;;5.47;1.30;;;;;;;;;;4990574;28;20117;-75
2022/05/14 09:17:00;;;;;;;4.15;1.30;;;;;;;;;;4990967;28;20031;-75
2022/05/14 09:19:32;;;;;;;9.18;1.10;;;;;;;;;;4988744;28;20565;-75
2022/05/14 09:21:58;;;;;;;2.87;1.10;;;;;;;;;;4987368;28;20042;-75
2022/05/14 09:24:27;;;;;;;4.35;1.70;;;;;;;;;;4988164;28;20158;-75
2022/05/14 09:26:54;;;;;;;5.15;1.85;;;;;;;;;;4990346;28;20035;-75
2022/05/14 09:29:27;;;;;;;4.78;1.20;;;;;;;;;;4987786;28;20026;-75
2022/05/14 09:31:59;;;;;;;;;;;;;;;;;;4989520;28;20081;-73
2022/05/14 09:34:26;;;;;;;5.82;1.58;;;;;;;;;;4986942;28;19918;-75
2022/05/14 09:36:51;;;;;;;3.83;1.27;;;;;;;;;;4988787;28;20517;-74
2022/05/14 09:39:20;;;;;;;3.38;1.08;;;;;;;;;;4985790;28;20043;-74
2022/05/14 09:41:49;;;;;;;5.65;1.23;;;;;;;;;;4984134;28;20034;-73
2022/05/14 09:44:24;;;;;;;5.20;1.60;;;;;;;;;;4986580;28;20069;-73
2022/05/14 09:46:52;;;;;;;5.45;1.42;;;;;;;;;;4988579;28;20444;-75
2022/05/14 09:49:25;;;;;;;2.53;1.02;;;;;;;;;;4986363;28;20117;-75
2022/05/14 09:51:55;;;;;;;8.00;1.23;;;;;;;;;;4990613;28;20038;-74
2022/05/14 09:54:30;;;;;;;6.30;1.42;;;;;;;;;;4990040;28;20034;-75
2022/05/14 09:57:26;;;;;;;4.32;0.88;;;;;;;;;;4990789;28;20026;-75
2022/05/14 10:00:12;;;;;;;3.00;1.20;;;;;;;;;;4981645;28;20406;-73
2022/05/14 10:02:47;;;;;;;4.20;1.30;;;;;;;;;;4988887;28;20128;-74
2022/05/14 10:05:37;;;;;;;3.45;1.13;;;;;;;;;;4986197;28;20057;-74
2022/05/14 10:08:38;;;;;;;3.33;1.08;;;;;;;;;;4990037;28;20038;-75
2022/05/14 10:11:29;;;;;;;8.80;1.40;;;;;;;;;;4912287;29;20064;-74
2022/05/14 10:14:13;;;;;;;4.80;1.20;;;;;;;;;;4976992;28;20034;-75
2022/05/14 10:17:09;;;;;;;5.60;1.35;;;;;;;;;;4986203;28;20042;-75
2022/05/14 10:20:04;;;;;;;5.13;1.85;;;;;;;;;;4985623;28;20046;-75
2022/05/14 10:28:48;;;;;;;5.97;1.25;;;;;;;;;;4990370;28;20127;-73
2022/05/14 10:31:41;;;;;;;5.82;1.08;;;;;;;;;;4981743;28;20050;-75
2022/05/14 10:34:16;;;;;;;5.57;0.98;;;;;;;;;;4987253;28;20507;-75
2022/05/14 10:36:49;;;;;;;5.70;1.38;;;;;;;;;;4987348;28;20038;-75
2022/05/14 10:40:00;;;;;;;3.47;1.13;;;;;;;;;;4989870;28;20050;-75
2022/05/14 10:42:40;;;;;;;5.72;1.30;;;;;;;;;;4976139;28;20034;-74
2022/05/14 10:45:15;;;;;;;3.47;1.10;;;;;;;;;;4988991;28;20442;-76
2022/05/14 10:47:45;;;;;;;6.80;1.20;;;;;;;;;;4988925;28;20030;-75
2022/05/14 10:50:19;;;;;;;3.03;1.25;;;;;;;;;;4985524;28;20043;-75
2022/05/14 10:52:47;;;;;;;4.43;1.00;;;;;;;;;;4987159;28;20030;-76
2022/05/14 10:55:35;;;;;;;7.15;1.33;;;;;;;;;;4984269;28;20164;-75
2022/05/14 10:58:07;;;;;;;5.55;1.13;;;;;;;;;;4987964;28;20379;-75
2022/05/14 11:00:41;;;;;;;7.07;1.40;;;;;;;;;;4988314;28;20034;-76
2022/05/14 11:03:23;;;;;;;4.68;1.10;;;;;;;;;;4983243;28;20345;-75
2022/05/14 11:05:54;;;;;;;2.70;1.15;;;;;;;;;;4985340;28;20049;-75
2022/05/14 11:08:33;;;;;;;5.18;1.20;;;;;;;;;;4986844;28;20023;-76
2022/05/14 11:11:23;;;;;;;3.88;1.30;;;;;;;;;;4987655;28;20041;-76
2022/05/14 11:14:02;;;;;;;3.60;1.30;;;;;;;;;;4985975;28;20038;-76
2022/05/14 11:16:41;;;;;;;2.78;1.10;;;;;;;;;;4985877;28;20042;-74
2022/05/14 11:19:07;;;;;;;5.97;1.30;;;;;;;;;;4986630;28;20494;-74
2022/05/14 11:21:51;;;;;;;4.57;1.10;;;;;;;;;;4986624;28;20030;-76
2022/05/14 11:24:17;;;;;;;5.93;1.50;;;;;;;;;;4985804;28;20046;-75
2022/05/14 11:26:51;;;;;;;7.45;1.23;;;;;;;;;;4986336;28;20027;-75
2022/05/14 11:29:25;;;;;;;2.30;1.00;;;;;;;;;;5001845;28;20467;-74
2022/05/14 11:32:08;;;;;;;4.05;1.20;;;;;;;;;;4986493;28;20049;-76
2022/05/14 11:34:34;;;;;;;3.95;0.98;;;;;;;;;;4988668;28;20046;-75
2022/05/14 11:37:02;;;;;;;2.95;1.20;;;;;;;;;;4985725;28;20049;-74
2022/05/14 11:39:37;;;;;;;3.00;1.05;;;;;;;;;;4986714;28;20062;-74
2022/05/14 11:42:26;;;;;;;3.35;1.17;;;;;;;;;;4986980;28;20033;-76
2022/05/14 11:45:00;;;;;;;3.83;1.27;;;;;;;;;;4984871;28;20022;-75
2022/05/14 11:47:44;;;;;;;3.25;1.00;;;;;;;;;;4986475;28;20034;-75
2022/05/14 11:50:11;;;;;;;5.53;1.52;;;;;;;;;;4988380;28;20073;-75
2022/05/14 11:52:46;;;;;;;5.70;1.38;;;;;;;;;;4988069;28;20427;-75
2022/05/14 11:55:22;;;;;;;3.33;1.40;;;;;;;;;;4987508;28;20034;-75
2022/05/14 11:57:56;;;;;;;5.95;1.63;;;;;;;;;;4986700;28;20517;-75
2022/05/14 12:00:28;;;;;;;3.83;1.52;;;;;;;;;;4985891;28;20038;-77
2022/05/14 12:03:23;;;;;;;2.97;1.38;;;;;;;;;;4989074;28;20080;-76
2022/05/14 12:06:21;;;;;;;5.35;1.13;;;;;;;;;;4985031;28;20026;-73
2022/05/14 12:09:09;;;;;;;4.55;1.27;;;;;;;;;;4988360;28;20022;-75
2022/05/14 12:11:45;;;;;;;4.10;1.27;;;;;;;;;;4987055;28;20030;-75
2022/05/14 12:14:19;;;;;;;2.05;1.10;;;;;;;;;;4987094;28;20465;-75
2022/05/14 12:16:49;;;;;;;2.17;1.08;;;;;;;;;;4988906;28;20030;-74
2022/05/14 12:19:18;;;;;;;2.80;1.20;;;;;;;;;;4984185;28;20043;-74
2022/05/14 12:21:54;;;;;;;5.65;1.50;;;;;;;;;;4987275;28;20085;-74
2022/05/14 12:24:27;;;;;;;4.50;1.45;;;;;;;;;;4981825;28;20041;-75
2022/05/14 12:26:53;;;;;;;5.20;1.35;;;;;;;;;;4987497;28;20039;-75
2022/05/14 12:29:27;;;;;;;5.80;1.27;;;;;;;;;;4987590;28;20528;-75
2022/05/14 12:34:56;;;;;;;20.02;2.35;;;;;;;;;;4986028;28;20076;-75
2022/05/14 12:37:24;;;;;;;5.28;1.40;;;;;;;;;;4982485;28;20466;-74
2022/05/14 12:39:52;;;;;;;3.33;0.82;;;;;;;;;;4986126;28;20141;-75
2022/05/14 12:42:23;;;;;;;4.35;1.10;;;;;;;;;;4985094;28;20046;-73
2022/05/14 12:44:51;;;;;;;6.07;1.40;;;;;;;;;;4987867;28;20470;-74
2022/05/14 12:47:23;;;;;;;3.03;1.13;;;;;;;;;;4986234;28;20088;-76
2022/05/14 12:49:49;;;;;;;2.58;0.98;;;;;;;;;;4986895;28;20038;-76
2022/05/14 12:52:18;;;;;;;7.10;1.40;;;;;;;;;;4985797;28;20057;-74
2022/05/14 12:55:14;;;;;;;2.47;0.88;;;;;;;;;;4988114;28;20054;-75
2022/05/14 12:57:43;;;;;;;4.20;1.10;;;;;;;;;;4976565;28;20060;-73
2022/05/14 13:00:11;;;;;;;3.20;1.48;;;;;;;;;;4988872;28;20046;-73
2022/05/14 13:02:44;;;;;;;5.25;1.35;;;;;;;;;;4987779;28;20026;-73
2022/05/14 13:05:14;;;;;;;2.80;1.20;;;;;;;;;;4989887;28;20679;-77
2022/05/14 13:07:57;;;;;;;4.30;1.10;;;;;;;;;;4992211;28;20034;-73
2022/05/14 13:10:29;;;;;;;8.57;1.20;;;;;;;;;;4991565;28;20422;-74
2022/05/14 13:12:57;;;;;;;7.80;1.17;;;;;;;;;;4992487;28;20490;-73
2022/05/14 13:15:40;;;;;;;4.65;1.30;;;;;;;;;;4991587;28;20077;-75
2022/05/14 13:18:25;;;;;;;2.90;1.00;;;;;;;;;;4988607;28;20486;-83
2022/05/14 13:21:13;;;;;;;5.15;1.38;;;;;;;;;;4991157;28;20344;-73
2022/05/14 13:23:57;;;;;;;5.28;1.30;;;;;;;;;;4992905;28;20081;-72
2022/05/14 13:26:27;;;;;;;4.70;1.05;;;;;;;;;;4991229;28;20054;-74
2022/05/14 13:28:52;;;;;;;5.60;1.23;;;;;;;;;;4985312;28;20034;-75
2022/05/14 13:31:23;;;;;;;5.30;1.38;;;;;;;;;;4985927;28;20129;-73
2022/05/14 13:37:07;;;;;;;6.80;1.52;;;;;;;;;;4990485;28;20035;-76
2022/05/14 13:37:09;;;;;;;5.30;1.40;;;;;;;;;;4987699;28;20614;-74
2022/05/14 13:39:48;;;;;;;5.78;1.50;;;;;;;;;;4988466;28;20047;-73
2022/05/14 13:42:42;;;;;;;7.82;1.25;;;;;;;;;;4982926;28;20042;-75
2022/05/14 13:45:16;;;;;;;6.28;1.48;;;;;;;;;;4988956;28;20096;-77
2022/05/14 13:47:48;;;;;;;2.95;1.00;;;;;;;;;;4989757;28;20490;-76
2022/05/14 13:50:21;;;;;;;5.82;1.10;;;;;;;;;;4987963;28;20450;-75
2022/05/14 13:52:51;;;;;;;;;;;;;;;;;;4987901;28;20034;-73
2022/05/14 13:55:31;;;;;;;4.35;1.20;;;;;;;;;;4987419;28;19922;-76
2022/05/14 13:58:00;;;;;;;3.95;1.38;;;;;;;;;;4987387;28;20042;-76
2022/05/14 14:00:30;;;;;;;4.80;1.33;;;;;;;;;;4986598;28;20049;-74
2022/05/14 14:03:07;;;;;;;1.73;1.00;;;;;;;;;;4990151;28;22079;-75
2022/05/14 14:05:36;;;;;;;3.28;1.23;;;;;;;;;;4987025;28;20026;-76
2022/05/14 14:08:06;;;;;;;5.80;1.63;;;;;;;;;;4990440;28;20038;-75
2022/05/14 14:10:34;;;;;;;3.38;1.30;;;;;;;;;;4988237;28;20502;-74
2022/05/14 14:13:01;;;;;;;5.05;1.27;;;;;;;;;;4993761;28;20042;-76
2022/05/14 14:15:28;;;;;;;3.92;1.38;;;;;;;;;;4991231;28;20066;-75
2022/05/14 14:17:54;;;;;;;3.67;1.10;;;;;;;;;;4988910;28;20026;-76
2022/05/14 14:20:20;;;;;;;7.20;1.27;;;;;;;;;;5007123;28;20542;-75
2022/05/14 14:22:46;;;;;;;3.97;1.20;;;;;;;;;;5005863;28;20121;-74
2022/05/14 14:25:13;;;;;;;2.22;1.15;;;;;;;;;;4990518;28;20562;-76
2022/05/14 14:27:40;;;;;;;3.17;1.00;;;;;;;;;;4986927;28;20498;-74
2022/05/14 14:30:10;;;;;;;4.15;1.60;;;;;;;;;;4987820;28;20129;-76
2022/05/14 14:32:36;;;;;;;1.80;1.30;;;;;;;;;;4991495;28;20501;-75
2022/05/14 14:35:03;;;;;;;8.93;1.17;;;;;;;;;;4990779;28;20167;-76
2022/05/14 14:37:28;;;;;;;4.05;1.02;;;;;;;;;;4988698;28;20054;-77
2022/05/14 14:39:54;;;;;;;4.70;1.10;;;;;;;;;;4989838;28;20145;-76
2022/05/14 14:42:20;;;;;;;4.40;1.25;;;;;;;;;;4991207;28;20046;-75
2022/05/14 14:44:46;;;;;;;7.38;1.00;;;;;;;;;;4994659;28;20462;-76
2022/05/14 14:47:12;;;;;;;3.58;0.82;;;;;;;;;;4990678;28;20030;-75
2022/05/14 14:49:38;;;;;;;2.35;1.00;;;;;;;;;;4975594;28;20042;-77
2022/05/14 14:54:26;;;;;;;7.47;1.10;;;;;;;;;;5066588;28;20596;-74
2022/05/14 14:56:51;;;;;;;6.68;1.20;;;;;;;;;;5007449;28;20116;-73
2022/05/14 14:59:17;;;;;;;3.42;1.52;;;;;;;;;;5001930;28;20030;-73
2022/05/14 15:01:49;;;;;;;5.03;1.30;;;;;;;;;;5020965;28;20405;-74
2022/05/14 15:04:23;;;;;;;3.20;1.20;;;;;;;;;;5024212;28;20036;-73
2022/05/14 15:06:50;;;;;;;4.93;1.30;;;;;;;;;;5015184;28;20463;-74
2022/05/14 15:09:16;;;;;;;5.10;1.20;;;;;;;;;;5003506;28;20451;-73
2022/05/14 15:11:42;;;;;;;1.83;0.80;;;;;;;;;;5001523;28;20039;-75
2022/05/14 15:14:13;;;;;;;3.03;1.05;;;;;;;;;;5002579;28;20035;-73
2022/05/14 15:16:38;;;;;;;3.33;1.20;;;;;;;;;;4997073;28;20642;-73
2022/05/14 15:19:03;;;;;;;3.10;1.10;;;;;;;;;;5002403;28;20117;-72
2022/05/14 15:21:29;;;;;;;7.00;1.10;;;;;;;;;;5005161;28;20029;-72
2022/05/14 15:23:54;;;;;;;3.63;1.20;;;;;;;;;;4997663;28;20070;-73
2022/05/14 15:26:22;;;;;;;4.05;1.02;;;;;;;;;;5001756;28;20474;-73
2022/05/14 15:28:48;;;;;;;7.80;1.88;;;;;;;;;;5001603;28;20482;-73